Time;durP1;ratioP1;P1;durP2;ratioP2;P2;SDS_P1;SDS_P2;PMS_P1;PMS_P2;Temp;Humidity;BMP_temperature;BMP_pressure;BME280_temperature;BME280_humidity;BME280_pressure;Samples;Min_cycle;Max_cycle;Signal;HPM_P1;HPM_P2
2023/10/07 00:01:24;;;;;;;10.85;3.97;;;;;;;17.43;52.63;100777.47;4915793;29;20047;-86
2023/10/07 00:03:53;;;;;;;11.33;4.07;;;;;;;17.40;52.79;100782.03;4914807;29;20028;-87
2023/10/07 00:06:22;;;;;;;12.60;4.07;;;;;;;17.36;52.47;100781.22;4915569;29;20043;-83
2023/10/07 00:08:50;;;;;;;11.57;3.70;;;;;;;17.31;52.90;100775.13;4915166;29;20075;-86
2023/10/07 00:11:16;;;;;;;11.02;3.55;;;;;;;17.26;52.84;100774.38;4915454;29;20069;-79
2023/10/07 00:13:42;;;;;;;10.27;3.55;;;;;;;17.21;52.93;100778.00;4916785;29;20036;-86
2023/10/07 00:16:10;;;;;;;11.57;4.00;;;;;;;17.20;53.05;100780.72;4915255;29;20024;-87
2023/10/07 00:18:37;;;;;;;10.60;3.95;;;;;;;17.16;53.24;100774.56;4897797;29;20070;-86
2023/10/07 00:21:04;;;;;;;17.90;6.82;;;;;;;17.14;53.03;100768.41;4914849;29;20091;-85
2023/10/07 00:23:29;;;;;;;14.73;4.07;;;;;;;17.11;53.00;100770.25;4915210;29;20069;-80
2023/10/07 00:25:58;;;;;;;11.13;3.40;;;;;;;17.06;53.14;100779.22;4914583;29;20039;-80
2023/10/07 00:31:01;;;;;;;12.13;3.80;;;;;;;17.00;53.08;100767.84;4914714;29;20470;-84
2023/10/07 00:33:27;;;;;;;11.63;3.47;;;;;;;16.97;53.26;100767.88;4913877;29;20051;-84
2023/10/07 00:35:53;;;;;;;10.48;3.10;;;;;;;16.92;53.38;100774.19;4914592;29;20119;-85
2023/10/07 00:38:23;;;;;;;12.85;3.85;;;;;;;16.90;53.45;100762.72;4914824;29;20038;-84
2023/10/07 00:40:54;;;;;;;12.82;4.22;;;;;;;16.86;53.47;100760.13;4914834;29;20095;-86
2023/10/07 00:43:30;;;;;;;11.03;3.70;;;;;;;16.78;53.65;100763.00;4914700;29;20032;-79
2023/10/07 00:46:10;;;;;;;13.85;3.90;;;;;;;16.73;53.73;100759.53;4915150;29;20096;-84
2023/10/07 00:48:45;;;;;;;9.48;3.35;;;;;;;16.66;53.86;100766.78;4914913;29;20091;-87
2023/10/07 00:51:11;;;;;;;10.10;3.80;;;;;;;16.63;53.93;100764.19;4914705;29;20031;-86
2023/10/07 00:54:15;;;;;;;9.73;3.70;;;;;;;16.61;53.75;100761.56;4914536;29;20523;-85
2023/10/07 00:56:27;;;;;;;12.17;3.30;;;;;;;16.58;53.94;100761.63;4913460;29;20444;-81
2023/10/07 00:58:53;;;;;;;11.18;3.60;;;;;;;16.58;53.95;100763.41;4914267;29;20032;-79
2023/10/07 01:01:19;;;;;;;12.23;4.10;;;;;;;16.56;53.80;100762.56;4914293;29;20055;-78
2023/10/07 01:03:48;;;;;;;10.13;3.38;;;;;;;16.52;54.03;100755.56;4913421;29;20510;-79
2023/10/07 01:06:22;;;;;;;14.07;3.95;;;;;;;16.52;53.93;100755.56;4913983;29;20102;-86
2023/10/07 01:08:50;;;;;;;10.00;3.27;;;;;;;16.46;54.21;100756.56;4914063;29;20028;-80
2023/10/07 01:13:50;;;;;;;13.60;3.60;;;;;;;16.42;54.27;100752.22;4914052;29;20084;-78
2023/10/07 01:16:28;;;;;;;13.23;3.80;;;;;;;16.39;54.46;100758.47;4914082;29;20039;-84
2023/10/07 01:21:54;;;;;;;11.87;3.93;;;;;;;16.30;54.88;100750.69;4914362;29;20397;-79
2023/10/07 01:24:33;;;;;;;9.35;3.42;;;;;;;16.26;54.70;100749.84;4899291;29;20090;-82
2023/10/07 01:27:04;;;;;;;13.85;3.60;;;;;;;16.23;54.81;100744.59;4908347;29;20141;-80
2023/10/07 01:29:30;;;;;;;10.98;3.60;;;;;;;16.22;54.77;100742.84;4912486;29;20036;-85
2023/10/07 01:32:12;;;;;;;9.67;3.23;;;;;;;16.17;54.82;100736.78;4909462;29;20048;-78
2023/10/07 01:34:38;;;;;;;8.95;3.17;;;;;;;16.13;54.97;100730.63;4913592;29;20521;-85
2023/10/07 01:37:05;;;;;;;12.95;3.90;;;;;;;16.10;55.14;100732.50;4913905;29;20099;-85
2023/10/07 01:39:40;;;;;;;11.32;3.33;;;;;;;16.05;55.06;100730.81;4913893;29;20043;-87
2023/10/07 01:42:07;;;;;;;10.33;3.80;;;;;;;16.00;55.18;100735.31;4913404;29;20573;-80
2023/10/07 01:44:38;;;;;;;12.32;3.58;;;;;;;15.94;55.73;100727.47;4913579;29;20384;-79
2023/10/07 01:47:04;;;;;;;14.27;3.72;;;;;;;15.88;55.76;100730.22;4913180;29;20557;-85
2023/10/07 01:49:30;;;;;;;10.83;4.00;;;;;;;15.81;56.20;100728.56;4896558;29;20123;-79
2023/10/07 01:51:56;;;;;;;8.93;3.45;;;;;;;15.78;56.23;100727.69;4913466;29;20312;-86
2023/10/07 01:54:21;;;;;;;8.00;2.85;;;;;;;15.79;55.96;100726.81;4913531;29;20277;-78
2023/10/07 01:56:48;;;;;;;9.33;3.57;;;;;;;15.82;56.04;100725.88;4913111;29;20051;-78
2023/10/07 02:01:42;;;;;;;9.63;3.43;;;;;;;15.85;55.91;100724.97;4913328;29;20226;-84
2023/10/07 02:04:17;;;;;;;11.18;3.50;;;;;;;15.81;56.07;100723.28;4912895;29;20084;-80
2023/10/07 02:06:51;;;;;;;11.30;3.75;;;;;;;15.76;55.98;100726.84;4912097;29;20040;-79
2023/10/07 02:09:24;;;;;;;10.90;3.67;;;;;;;15.72;56.27;100727.81;4913231;29;20043;-83
2023/10/07 02:11:54;;;;;;;9.65;3.58;;;;;;;15.69;56.17;100727.88;4913155;29;20036;-82
2023/10/07 02:14:24;;;;;;;10.50;3.63;;;;;;;15.63;56.48;100728.84;4913097;29;20393;-79
2023/10/07 02:16:50;;;;;;;14.25;3.75;;;;;;;15.58;56.71;100724.56;4913089;29;20164;-78
2023/10/07 02:19:26;;;;;;;13.75;4.32;;;;;;;15.50;57.47;100722.03;4912534;29;20035;-79
2023/10/07 02:21:59;;;;;;;15.77;4.00;;;;;;;15.43;57.08;100726.56;4913039;29;20064;-83
2023/10/07 02:24:28;;;;;;;12.45;3.75;;;;;;;15.41;57.29;100722.16;4913265;29;20043;-82
2023/10/07 02:26:55;;;;;;;10.83;3.60;;;;;;;15.42;56.94;100724.81;4912920;29;20184;-79
2023/10/07 02:29:21;;;;;;;11.23;3.60;;;;;;;15.44;57.17;100722.16;4927972;29;20024;-82
2023/10/07 02:31:49;;;;;;;10.13;3.30;;;;;;;15.43;56.78;100721.25;4931681;29;20400;-79
2023/10/07 02:34:28;;;;;;;12.68;3.45;;;;;;;15.39;57.25;100722.22;4931336;29;20039;-80
2023/10/07 02:37:11;;;;;;;9.20;3.35;;;;;;;15.39;57.12;100719.56;4931957;29;20028;-79
2023/10/07 02:39:49;;;;;;;11.67;3.50;;;;;;;15.40;57.19;100721.31;4931739;29;20024;-79
2023/10/07 02:42:22;;;;;;;10.55;3.45;;;;;;;15.36;57.02;100717.81;4931828;29;20039;-80
2023/10/07 02:47:47;;;;;;;10.73;3.70;;;;;;;15.30;57.49;100722.34;4931567;29;20047;-79
2023/10/07 02:50:13;;;;;;;8.95;3.58;;;;;;;15.30;57.31;100727.66;4931719;29;20107;-78
2023/10/07 02:52:39;;;;;;;9.97;3.37;;;;;;;15.26;57.49;100718.88;4931779;29;20123;-79
2023/10/07 02:57:47;;;;;;;12.23;3.70;;;;;;;15.22;57.65;100719.84;4893787;29;20083;-87
2023/10/07 03:00:35;;;;;;;12.07;3.63;;;;;;;15.19;57.65;100718.09;4894025;29;20450;-81
2023/10/07 03:05:58;;;;;;;11.82;3.50;;;;;;;15.11;57.79;100719.13;4906001;29;20066;-84
2023/10/07 03:08:31;;;;;;;11.18;3.60;;;;;;;15.10;57.81;100717.38;4912612;29;20032;-80
2023/10/07 03:11:13;;;;;;;17.15;4.28;;;;;;;15.05;58.28;100712.13;4912981;29;20606;-79
2023/10/07 03:13:49;;;;;;;11.20;4.38;;;;;;;14.91;59.21;100721.19;4895236;29;20690;-78
2023/10/07 03:18:56;;;;;;;10.25;4.40;;;;;;;14.75;59.41;100717.00;4914370;29;20114;-79
2023/10/07 03:21:22;;;;;;;14.27;4.28;;;;;;;14.62;60.10;100717.13;4900680;29;20036;-82
2023/10/07 03:23:48;;;;;;;10.93;4.10;;;;;;;14.54;60.05;100716.34;4915577;29;20036;-83
2023/10/07 03:26:18;;;;;;;11.63;4.33;;;;;;;14.40;61.30;100715.66;4895501;29;20049;-80
2023/10/07 03:28:53;;;;;;;10.30;4.05;;;;;;;14.34;61.17;100717.47;4917062;29;20024;-80
2023/10/07 03:31:21;;;;;;;12.43;4.22;;;;;;;14.29;61.39;100721.97;4934718;29;20028;-79
2023/10/07 03:33:58;;;;;;;10.97;3.67;;;;;;;14.30;61.03;100723.72;4917058;29;20127;-80
2023/10/07 03:41:41;;;;;;;15.48;4.53;;;;;;;14.30;60.70;100731.66;4934672;29;20074;-79
2023/10/07 03:44:07;;;;;;;10.20;4.37;;;;;;;14.27;60.90;100725.53;4934600;29;20063;-79
2023/10/07 03:46:34;;;;;;;9.60;3.95;;;;;;;14.20;61.08;100722.94;4934579;29;20123;-80
2023/10/07 03:49:01;;;;;;;11.93;3.92;;;;;;;14.18;61.14;100722.09;4934002;29;20032;-79
2023/10/07 03:51:30;;;;;;;14.50;4.03;;;;;;;14.19;60.89;100723.84;4934193;29;20039;-84
2023/10/07 03:54:00;;;;;;;14.25;4.13;;;;;;;14.18;61.07;100721.22;4934449;29;20126;-79
2023/10/07 03:56:26;;;;;;;12.23;3.77;;;;;;;14.15;61.16;100732.72;4929139;29;20039;-79
2023/10/07 03:58:53;;;;;;;11.90;4.13;;;;;;;14.13;60.98;100729.22;4934472;29;20031;-80
2023/10/07 04:01:18;;;;;;;9.88;3.97;;;;;;;14.17;60.94;100719.47;4934423;29;20031;-79
2023/10/07 04:03:49;;;;;;;10.80;3.80;;;;;;;14.15;61.06;100721.25;4925887;29;20028;-80
2023/10/07 04:06:16;;;;;;;10.18;3.35;;;;;;;14.17;60.94;100724.78;4915203;29;20040;-79
2023/10/07 04:08:44;;;;;;;12.93;3.55;;;;;;;14.20;60.94;100722.94;4915152;29;20036;-79
2023/10/07 04:11:19;;;;;;;9.93;3.50;;;;;;;14.26;60.56;100724.66;4915381;29;20458;-78
2023/10/07 04:13:45;;;;;;;11.18;3.65;;;;;;;14.30;60.45;100729.00;4896668;29;20041;-80
2023/10/07 04:16:22;;;;;;;10.20;3.88;;;;;;;14.33;60.42;100726.31;4896185;29;20107;-86
2023/10/07 04:18:53;;;;;;;9.73;3.70;;;;;;;14.34;60.22;100733.38;4883781;29;20318;-84
2023/10/07 04:21:20;;;;;;;10.30;3.97;;;;;;;14.31;60.25;100736.06;4915209;29;20048;-79
2023/10/07 04:23:46;;;;;;;10.47;3.20;;;;;;;14.28;60.37;100733.44;4914997;29;20040;-78
2023/10/07 04:26:21;;;;;;;12.05;3.92;;;;;;;14.25;60.25;100730.84;4914578;29;20032;-81
2023/10/07 04:28:53;;;;;;;13.90;3.80;;;;;;;14.18;60.74;100726.53;4924604;29;20051;-85
2023/10/07 04:31:29;;;;;;;9.13;3.57;;;;;;;14.13;60.87;100717.75;4933134;29;20030;-80
2023/10/07 04:33:54;;;;;;;13.02;3.72;;;;;;;14.04;61.07;100727.53;4933223;29;20480;-83
2023/10/07 04:37:13;;;;;;;9.50;3.40;;;;;;;14.04;61.14;100718.75;4933734;29;20110;-79
2023/10/07 04:39:18;;;;;;;14.93;4.83;;;;;;;14.04;60.96;100726.69;4933198;29;20123;-85
2023/10/07 04:41:43;;;;;;;8.80;3.60;;;;;;;14.03;60.87;100720.50;4933622;29;20526;-79
2023/10/07 04:44:20;;;;;;;8.57;3.20;;;;;;;14.05;60.75;100716.06;4933699;29;20027;-78
2023/10/07 04:46:55;;;;;;;11.88;3.78;;;;;;;14.05;60.87;100715.19;4934231;29;20063;-82
2023/10/07 04:49:23;;;;;;;10.75;3.22;;;;;;;14.07;60.66;100722.22;4933047;29;20564;-79
2023/10/07 04:51:55;;;;;;;9.10;3.30;;;;;;;14.06;60.32;100723.09;4933342;29;20048;-86
2023/10/07 04:54:20;;;;;;;9.75;3.30;;;;;;;14.03;60.46;100720.50;4933638;29;20404;-83
2023/10/07 04:57:00;;;;;;;8.13;3.03;;;;;;;14.02;60.42;100734.63;4928274;29;20055;-86
2023/10/07 04:59:26;;;;;;;10.98;3.65;;;;;;;14.00;60.38;100725.81;4933573;29;20404;-80
2023/10/07 05:01:56;;;;;;;9.43;3.60;;;;;;;13.97;60.39;100728.50;4915958;29;20031;-86
2023/10/07 05:04:24;;;;;;;10.90;3.97;;;;;;;13.89;60.81;100725.09;4920140;29;20086;-79
2023/10/07 05:06:51;;;;;;;10.20;3.88;;;;;;;13.83;60.40;100741.00;4914308;29;20032;-79
2023/10/07 05:09:21;;;;;;;13.80;3.50;;;;;;;13.77;60.93;100736.66;4913759;29;20091;-80
2023/10/07 05:11:47;;;;;;;9.98;3.40;;;;;;;13.78;60.61;100733.13;4914576;29;20043;-79
2023/10/07 05:14:22;;;;;;;10.98;4.00;;;;;;;13.78;60.76;100733.13;4914154;29;20071;-79
2023/10/07 05:16:48;;;;;;;8.05;3.40;;;;;;;13.75;60.66;100733.16;4913666;29;20509;-81
2023/10/07 05:19:19;;;;;;;8.88;3.65;;;;;;;13.74;60.71;100737.56;4913672;29;20024;-85
2023/10/07 05:21:47;;;;;;;9.60;3.43;;;;;;;13.71;60.84;100740.25;4914170;29;20035;-78
2023/10/07 05:24:13;;;;;;;9.43;3.58;;;;;;;13.68;60.88;100734.97;4914218;29;20024;-81
2023/10/07 05:26:41;;;;;;;8.43;3.58;;;;;;;13.65;60.83;100750.91;4914587;29;20122;-85
2023/10/07 05:29:09;;;;;;;10.32;3.65;;;;;;;13.64;60.85;100741.19;4927549;29;20019;-82
2023/10/07 05:31:38;;;;;;;8.95;3.42;;;;;;;13.62;60.84;100748.25;4932743;29;20035;-83
2023/10/07 05:34:04;;;;;;;11.27;3.70;;;;;;;13.59;60.68;100742.97;4932338;29;20031;-82
2023/10/07 05:36:30;;;;;;;12.40;4.10;;;;;;;13.55;60.83;100750.09;4932695;29;20039;-85
2023/10/07 05:38:56;;;;;;;12.10;3.85;;;;;;;13.52;60.77;100751.88;4932783;29;20032;-83
2023/10/07 05:41:25;;;;;;;13.13;4.37;;;;;;;13.46;61.00;100748.41;4940623;29;20057;-82
2023/10/07 05:43:51;;;;;;;9.95;3.97;;;;;;;13.41;61.13;100752.81;4943583;29;20051;-85
2023/10/07 05:46:20;;;;;;;11.27;3.80;;;;;;;13.36;61.03;100757.25;4933634;29;20404;-87
2023/10/07 05:48:47;;;;;;;10.52;3.30;;;;;;;13.35;61.08;100755.50;4932228;29;20131;-83
2023/10/07 05:51:13;;;;;;;10.82;3.58;;;;;;;13.32;60.92;100756.41;4932783;29;20027;-85
2023/10/07 05:53:41;;;;;;;10.20;3.63;;;;;;;13.29;61.23;100755.53;4932877;29;20058;-81
2023/10/07 05:56:07;;;;;;;9.52;3.45;;;;;;;13.28;61.24;100759.09;4928140;29;20028;-85
2023/10/07 05:58:35;;;;;;;14.60;3.92;;;;;;;13.29;61.09;100760.84;4933437;29;20031;-81
2023/10/07 06:01:01;;;;;;;12.73;3.78;;;;;;;13.29;61.04;100771.41;4932205;29;20035;-79
2023/10/07 06:03:30;;;;;;;12.00;3.53;;;;;;;13.28;60.53;100773.19;4926977;29;20028;-82
2023/10/07 06:06:01;;;;;;;12.50;3.92;;;;;;;13.25;60.86;100767.03;4912908;29;20402;-82
2023/10/07 06:08:28;;;;;;;9.45;3.75;;;;;;;13.21;60.99;100779.41;4913314;29;20043;-83
2023/10/07 06:10:56;;;;;;;10.53;3.50;;;;;;;13.19;60.90;100783.81;4912992;29;20032;-83
2023/10/07 06:13:26;;;;;;;12.77;3.90;;;;;;;13.17;61.00;100775.03;4913114;29;20196;-79
2023/10/07 06:15:52;;;;;;;12.40;3.78;;;;;;;13.13;61.06;100784.72;4912961;29;20435;-85
2023/10/07 06:18:18;;;;;;;12.48;4.10;;;;;;;13.12;61.21;100780.34;4912504;29;20032;-80
2023/10/07 06:20:51;;;;;;;11.40;3.53;;;;;;;13.13;61.33;100779.44;4912789;29;20047;-82
2023/10/07 06:23:20;;;;;;;13.93;3.67;;;;;;;13.15;61.19;100790.91;4913040;29;20032;-79
2023/10/07 06:25:51;;;;;;;14.55;3.90;;;;;;;13.15;61.29;100785.63;4912907;29;20111;-79
2023/10/07 06:31:10;;;;;;;13.88;3.97;;;;;;;13.14;61.38;100789.16;4918907;29;20516;-78
2023/10/07 06:33:39;;;;;;;9.40;3.60;;;;;;;13.10;61.49;100795.34;4907481;29;20049;-79
2023/10/07 06:36:06;;;;;;;14.30;3.80;;;;;;;13.14;61.44;100793.56;4894185;29;20052;-86
2023/10/07 06:38:33;;;;;;;11.68;3.72;;;;;;;13.17;61.44;100799.72;4894149;29;20025;-87
2023/10/07 06:40:59;;;;;;;11.40;3.58;;;;;;;13.21;61.37;100798.81;4877242;29;20378;-80
2023/10/07 06:43:25;;;;;;;11.73;3.92;;;;;;;13.24;61.25;100812.91;4894280;29;20043;-79
2023/10/07 06:45:54;;;;;;;15.13;4.40;;;;;;;13.26;61.23;100816.41;4893639;29;20063;-85
2023/10/07 06:48:23;;;;;;;12.02;4.10;;;;;;;13.27;61.61;100815.50;4877750;29;20060;-79
2023/10/07 06:50:52;;;;;;;13.70;4.30;;;;;;;13.27;61.66;100813.75;4875276;29;20041;-81
2023/10/07 06:53:22;;;;;;;11.43;4.50;;;;;;;13.25;62.06;100822.59;4876772;29;20021;-78
2023/10/07 06:55:52;;;;;;;13.93;4.47;;;;;;;13.23;62.59;100824.38;4891718;29;20028;-78
2023/10/07 06:58:22;;;;;;;13.97;4.10;;;;;;;13.20;62.78;100830.53;4912894;29;20036;-81
2023/10/07 07:00:49;;;;;;;11.00;4.22;;;;;;;13.24;62.87;100826.13;4880047;29;20382;-79
2023/10/07 07:03:18;;;;;;;10.02;3.65;;;;;;;13.32;62.54;100824.28;4895873;29;20053;-85
2023/10/07 07:05:48;;;;;;;10.20;4.07;;;;;;;13.39;62.19;100833.97;4901775;29;20028;-78
2023/10/07 07:08:14;;;;;;;11.73;4.50;;;;;;;13.46;62.75;100837.47;4898068;29;20532;-78
2023/10/07 07:10:40;;;;;;;12.07;4.50;;;;;;;13.53;63.64;100838.31;4897599;29;20032;-84
2023/10/07 07:13:18;;;;;;;12.95;4.22;;;;;;;13.76;62.45;100831.06;4897578;29;20025;-86
2023/10/07 07:15:57;;;;;;;15.75;4.88;;;;;;;13.99;64.01;100830.00;4897398;29;20485;-86
2023/10/07 07:18:25;;;;;;;12.88;4.18;;;;;;;14.25;62.00;100834.16;4896520;29;20051;-86
2023/10/07 07:23:32;;;;;;;12.15;4.00;;;;;;;14.80;60.62;100842.41;4897271;29;20043;-85
2023/10/07 07:28:32;;;;;;;11.55;4.63;;;;;;;15.23;59.84;100840.09;4917145;29;20076;-86
2023/10/07 07:31:02;;;;;;;11.32;4.07;;;;;;;15.44;59.64;100845.09;4902607;29;20413;-88
2023/10/07 07:33:37;;;;;;;12.90;4.20;;;;;;;15.64;59.17;100843.91;4912528;29;20568;-85
2023/10/07 07:36:48;;;;;;;13.10;4.05;;;;;;;15.71;59.02;100848.22;4916849;29;20036;-83
2023/10/07 07:38:54;;;;;;;14.40;4.47;;;;;;;15.68;59.97;100852.72;4903876;29;20488;-81
2023/10/07 07:41:34;;;;;;;10.60;4.95;;;;;;;15.71;59.85;100848.22;4915216;29;20028;-84
2023/10/07 07:43:59;;;;;;;15.68;4.97;;;;;;;15.90;59.63;100851.47;4913594;29;20627;-85
2023/10/07 07:46:26;;;;;;;14.40;4.43;;;;;;;16.12;59.08;100855.53;4914619;29;20043;-83
2023/10/07 07:48:53;;;;;;;11.13;4.05;;;;;;;16.26;58.88;100853.50;4914008;29;20056;-84
2023/10/07 07:51:24;;;;;;;14.00;4.75;;;;;;;16.41;58.71;100849.72;4916184;29;20036;-87
2023/10/07 07:53:50;;;;;;;11.23;4.00;;;;;;;16.57;58.48;100854.72;4899661;29;20040;-85
2023/10/07 07:56:15;;;;;;;9.45;3.72;;;;;;;16.73;58.19;100855.28;4913766;29;20123;-82
2023/10/07 07:58:47;;;;;;;9.70;4.32;;;;;;;16.90;57.84;100858.47;4897255;29;20068;-85
2023/10/07 08:01:24;;;;;;;10.43;3.87;;;;;;;17.04;57.92;100855.56;4896716;29;20035;-86
2023/10/07 08:03:51;;;;;;;12.57;4.10;;;;;;;17.27;57.28;100853.31;4899802;29;20033;-85
2023/10/07 08:06:25;;;;;;;12.60;4.17;;;;;;;17.37;57.05;100857.50;4915693;29;20063;-81
2023/10/07 08:08:53;;;;;;;10.18;4.18;;;;;;;17.50;57.07;100858.97;4915359;29;20024;-81
2023/10/07 08:11:18;;;;;;;13.63;3.97;;;;;;;17.60;56.75;100854.31;4917968;29;20031;-84
2023/10/07 08:13:45;;;;;;;10.87;4.23;;;;;;;17.70;56.55;100859.41;4914971;29;20556;-83
2023/10/07 08:16:15;;;;;;;11.43;4.03;;;;;;;17.84;56.61;100864.41;4915919;29;20024;-85
2023/10/07 08:18:41;;;;;;;13.00;4.05;;;;;;;18.01;56.31;100863.97;4915226;29;20076;-86
2023/10/07 08:21:07;;;;;;;10.75;4.18;;;;;;;18.14;55.96;100860.13;4915383;29;20024;-86
2023/10/07 08:23:40;;;;;;;11.37;3.93;;;;;;;18.29;55.58;100861.50;4915440;29;20028;-84
2023/10/07 08:26:13;;;;;;;10.10;3.78;;;;;;;18.49;55.20;100862.75;4914851;29;20555;-84
2023/10/07 08:28:45;;;;;;;12.15;3.92;;;;;;;18.67;55.08;100864.03;4924540;29;20031;-85
2023/10/07 08:31:19;;;;;;;11.38;3.90;;;;;;;18.83;54.61;100864.47;4933766;29;20449;-86
2023/10/07 08:33:53;;;;;;;11.50;3.73;;;;;;;18.99;54.40;100859.56;4933949;29;20074;-86
2023/10/07 08:36:27;;;;;;;11.18;3.70;;;;;;;19.12;54.12;100869.91;4934604;29;20027;-86
2023/10/07 08:38:53;;;;;;;11.45;3.95;;;;;;;19.24;54.04;100864.16;4917328;29;20118;-86
2023/10/07 08:41:18;;;;;;;11.88;3.90;;;;;;;19.39;53.75;100862.81;4935001;29;20392;-87
2023/10/07 08:43:45;;;;;;;9.97;3.77;;;;;;;19.54;53.46;100861.47;4934155;29;20493;-87
2023/10/07 08:46:19;;;;;;;12.18;4.05;;;;;;;19.62;52.67;100859.44;4933850;29;20032;-82
2023/10/07 08:48:56;;;;;;;10.50;3.83;;;;;;;19.70;53.14;100861.84;4934549;29;20028;-86
2023/10/07 08:51:24;;;;;;;12.20;3.83;;;;;;;19.82;53.03;100860.56;4936979;29;20126;-86
2023/10/07 08:54:05;;;;;;;13.95;3.92;;;;;;;19.93;52.09;100857.59;4927809;29;20509;-86
2023/10/07 08:56:36;;;;;;;9.38;3.63;;;;;;;20.07;51.70;100854.44;4927519;29;20059;-86
2023/10/07 08:59:12;;;;;;;10.07;3.63;;;;;;;20.18;51.86;100856.75;4933830;29;20035;-86
2023/10/07 09:01:43;;;;;;;12.83;3.47;;;;;;;20.31;51.87;100859.84;4915809;29;20036;-84
2023/10/07 09:04:08;;;;;;;11.02;3.83;;;;;;;20.50;51.00;100860.06;4914926;29;20020;-87
2023/10/07 09:06:37;;;;;;;10.02;3.80;;;;;;;20.60;50.57;100858.78;4914449;29;20032;-86
2023/10/07 09:09:10;;;;;;;10.87;3.40;;;;;;;20.69;50.83;100859.41;4914650;29;20028;-86
2023/10/07 09:11:36;;;;;;;11.52;3.33;;;;;;;20.93;50.51;100850.47;4932526;29;20024;-85
2023/10/07 09:14:06;;;;;;;11.20;3.60;;;;;;;21.14;49.94;100850.59;4923662;29;20043;-87
2023/10/07 09:16:32;;;;;;;8.80;3.50;;;;;;;21.37;49.59;100849.66;4913917;29;20067;-87
2023/10/07 09:18:59;;;;;;;11.85;3.55;;;;;;;21.48;49.19;100851.91;4913965;29;20389;-88
2023/10/07 09:21:33;;;;;;;10.13;3.33;;;;;;;21.62;48.48;100847.81;4915757;29;20091;-86
2023/10/07 09:24:02;;;;;;;9.82;3.38;;;;;;;21.75;48.57;100850.88;4916637;29;20032;-86
2023/10/07 09:26:34;;;;;;;13.23;3.53;;;;;;;21.87;48.27;100841.47;4916207;29;20050;-84
2023/10/07 09:29:21;;;;;;;11.60;3.45;;;;;;;22.05;47.85;100846.00;4927080;29;20495;-88
2023/10/07 09:32:04;;;;;;;13.23;3.63;;;;;;;22.17;47.96;100844.59;4933858;29;20030;-88
2023/10/07 09:34:32;;;;;;;11.50;4.00;;;;;;;22.44;46.96;100840.78;4934721;29;20397;-86
2023/10/07 09:36:58;;;;;;;11.77;3.85;;;;;;;22.57;46.99;100843.81;4934212;29;20106;-88
2023/10/07 09:42:26;;;;;;;10.13;3.00;;;;;;;22.86;46.66;100831.75;4933512;29;20276;-89
2023/10/07 09:44:55;;;;;;;10.00;3.60;;;;;;;23.01;46.32;100829.28;4933284;29;20054;-88
2023/10/07 09:47:22;;;;;;;10.70;3.97;;;;;;;23.19;46.21;100823.03;4933444;29;20032;-84
2023/10/07 09:49:50;;;;;;;8.20;3.10;;;;;;;23.30;46.06;100824.38;4923989;29;20040;-83
2023/10/07 09:52:28;;;;;;;10.63;3.40;;;;;;;23.46;45.43;100819.97;4913288;29;20036;-84
2023/10/07 09:55:21;;;;;;;13.18;3.50;;;;;;;23.55;45.54;100813.28;4913851;29;20389;-85
2023/10/07 09:57:59;;;;;;;10.23;4.00;;;;;;;23.88;45.15;100814.34;4911156;29;20051;-85
2023/10/07 10:00:40;;;;;;;13.80;3.80;;;;;;;24.05;44.60;100811.69;4913559;29;20024;-85
2023/10/07 10:03:30;;;;;;;9.60;3.30;;;;;;;24.16;44.51;100810.22;4912821;29;20028;-87
2023/10/07 10:06:08;;;;;;;11.90;3.72;;;;;;;24.35;44.15;100808.31;4894515;29;20063;-87
2023/10/07 10:08:57;;;;;;;10.60;3.58;;;;;;;24.46;44.31;100815.81;4894715;29;20044;-88
2023/10/07 10:11:30;;;;;;;13.85;4.10;;;;;;;24.73;43.54;100803.63;4894886;29;20029;-88
2023/10/07 10:14:16;;;;;;;10.90;3.80;;;;;;;24.93;43.38;100805.25;4894677;29;20159;-86
2023/10/07 10:16:45;;;;;;;11.18;3.72;;;;;;;25.14;42.72;100803.16;4897969;29;20062;-87
2023/10/07 10:19:44;;;;;;;10.57;3.90;;;;;;;25.19;42.42;100790.28;4915072;29;20051;-88
2023/10/07 10:22:12;;;;;;;12.13;3.85;;;;;;;25.34;42.64;100785.84;4914921;29;20020;-86
2023/10/07 10:24:42;;;;;;;15.43;4.38;;;;;;;25.47;42.57;100790.53;4915439;29;20028;-92
2023/10/07 10:27:13;;;;;;;11.37;3.63;;;;;;;25.62;41.90;100783.38;4918622;29;20036;-90
2023/10/07 10:30:04;;;;;;;13.85;4.45;;;;;;;25.69;41.80;100779.38;4929562;29;20063;-87
2023/10/07 10:32:36;;;;;;;10.70;4.20;;;;;;;25.86;41.46;100783.75;4903731;29;20040;-90
2023/10/07 10:35:06;;;;;;;11.75;4.30;;;;;;;26.01;41.33;100775.66;4922423;29;20028;-89
2023/10/07 10:37:34;;;;;;;11.50;4.60;;;;;;;26.11;40.98;100778.69;4923072;29;20087;-88
2023/10/07 10:40:20;;;;;;;13.33;4.27;;;;;;;26.14;40.81;100778.47;4920432;29;20688;-88
2023/10/07 10:42:51;;;;;;;13.68;4.40;;;;;;;26.39;40.22;100768.88;4915633;29;20123;-92
2023/10/07 10:45:21;;;;;;;13.40;4.13;;;;;;;26.49;39.84;100767.34;4903696;29;20062;-90
2023/10/07 10:47:54;;;;;;;9.75;4.00;;;;;;;26.52;39.66;100769.88;4926410;29;20040;-94
2023/10/07 10:50:23;;;;;;;11.90;4.30;;;;;;;26.62;39.07;100760.19;4907526;29;20705;-90
2023/10/07 10:52:49;;;;;;;13.60;4.23;;;;;;;26.77;39.35;100762.88;4891910;29;20527;-92
2023/10/07 10:55:17;;;;;;;11.68;4.18;;;;;;;26.90;39.19;100760.28;4926511;29;20012;-88
2023/10/07 10:57:46;;;;;;;9.55;3.97;;;;;;;27.04;38.73;100757.56;4910897;29;20039;-91
2023/10/07 11:00:19;;;;;;;9.60;3.72;;;;;;;27.17;38.55;100749.50;4900652;29;20036;-88
2023/10/07 11:02:48;;;;;;;12.10;4.32;;;;;;;27.28;37.72;100743.38;4898410;29;20039;-95
2023/10/07 11:05:13;;;;;;;12.33;3.60;;;;;;;27.29;37.63;100749.63;4920662;29;20028;-95
2023/10/07 11:07:40;;;;;;;10.35;3.58;;;;;;;27.39;37.52;100737.25;4920485;29;20039;-87
2023/10/07 11:10:08;;;;;;;8.20;3.30;;;;;;;27.49;37.29;100730.22;4920624;29;20095;-88
2023/10/07 11:12:33;;;;;;;11.00;3.97;;;;;;;27.62;37.10;100734.84;4920902;29;20028;-85
2023/10/07 11:15:14;;;;;;;10.90;4.10;;;;;;;27.70;36.74;100727.06;4922413;29;20028;-86
2023/10/07 11:17:43;;;;;;;9.38;3.60;;;;;;;27.88;36.52;100737.59;4917989;29;20039;-86
2023/10/07 11:20:11;;;;;;;15.60;3.53;;;;;;;27.97;36.22;100727.91;4917295;29;20020;-83
2023/10/07 11:22:38;;;;;;;11.70;3.75;;;;;;;28.08;36.06;100728.03;4916414;29;20036;-89
2023/10/07 11:25:06;;;;;;;10.00;4.00;;;;;;;28.15;35.77;100720.34;4916578;29;20115;-84
2023/10/07 11:27:32;;;;;;;9.82;3.70;;;;;;;28.16;35.32;100714.00;4917522;29;20036;-86
2023/10/07 11:30:03;;;;;;;13.35;4.53;;;;;;;28.18;34.78;100710.19;4935521;29;20036;-87
2023/10/07 11:32:30;;;;;;;10.03;3.47;;;;;;;28.29;34.28;100711.28;4918509;29;20490;-84
2023/10/07 11:34:57;;;;;;;13.35;3.58;;;;;;;28.27;34.33;100703.25;4915829;29;20035;-83
2023/10/07 11:37:23;;;;;;;10.38;3.65;;;;;;;28.35;34.31;100697.28;4917039;29;20039;-89
2023/10/07 11:39:48;;;;;;;12.90;3.73;;;;;;;28.48;34.44;100700.84;4918494;29;20024;-88
2023/10/07 11:42:19;;;;;;;20.85;6.68;;;;;;;28.55;33.86;100695.81;4920004;29;20032;-85
2023/10/07 11:44:54;;;;;;;12.95;4.00;;;;;;;28.62;34.00;100697.13;4921945;29;20028;-84
2023/10/07 11:47:20;;;;;;;15.80;3.70;;;;;;;28.84;33.51;100689.25;4919489;29;20036;-92
2023/10/07 11:49:46;;;;;;;14.73;3.72;;;;;;;28.96;33.59;100692.91;4911530;29;20028;-87
2023/10/07 11:52:12;;;;;;;13.43;3.75;;;;;;;29.06;33.17;100685.81;4916508;29;20036;-85
2023/10/07 11:54:39;;;;;;;9.93;3.70;;;;;;;29.20;32.86;100680.19;4916010;29;20028;-87
2023/10/07 11:57:05;;;;;;;15.70;4.10;;;;;;;29.34;32.77;100672.84;4928416;29;20381;-86
2023/10/07 11:59:33;;;;;;;8.82;3.70;;;;;;;29.32;32.08;100677.53;4934999;29;20090;-91
2023/10/07 12:02:00;;;;;;;14.48;7.85;;;;;;;29.22;31.23;100666.53;4913352;29;20066;-87
2023/10/07 12:04:26;;;;;;;34.55;14.45;;;;;;;29.21;31.44;100662.94;4915965;29;20063;-85
2023/10/07 12:06:52;;;;;;;12.60;5.23;;;;;;;29.30;31.67;100660.47;4915104;29;20032;-86
2023/10/07 12:09:21;;;;;;;12.93;4.05;;;;;;;29.46;32.09;100663.78;4915496;29;20108;-84
2023/10/07 12:11:48;;;;;;;9.90;3.30;;;;;;;29.60;31.20;100656.41;4915445;29;20087;-84